sensor_id;sensor_type;location;lat;lon;timestamp;pressure;altitude;pressure_sealevel;temperature;humidity
6853;BME280;3465;42.144;24.722;2023-05-19T00:01:43;146546.19;;;14.52;100.00
6853;BME280;3465;42.144;24.722;2023-05-19T00:04:10;146554.97;;;14.55;100.00
6853;BME280;3465;42.144;24.722;2023-05-19T00:06:39;146562.50;;;14.58;100.00
6853;BME280;3465;42.144;24.722;2023-05-19T00:09:07;146560.00;;;14.57;100.00
6853;BME280;3465;42.144;24.722;2023-05-19T00:11:34;146557.53;;;14.56;100.00
6853;BME280;3465;42.144;24.722;2023-05-19T00:14:01;146547.44;;;14.52;100.00
6853;BME280;3465;42.144;24.722;2023-05-19T00:16:28;146544.94;;;14.51;100.00
6853;BME280;3465;42.144;24.722;2023-05-19T00:18:56;146538.66;;;14.49;100.00
6853;BME280;3465;42.144;24.722;2023-05-19T00:21:22;146548.72;;;14.53;100.00
6853;BME280;3465;42.144;24.722;2023-05-19T00:23:47;146560.00;;;14.57;100.00
6853;BME280;3465;42.144;24.722;2023-05-19T00:26:13;146539.91;;;14.49;100.00
6853;BME280;3465;42.144;24.722;2023-05-19T00:28:38;146534.88;;;14.47;100.00
6853;BME280;3465;42.144;24.722;2023-05-19T00:31:04;146548.72;;;14.53;100.00
6853;BME280;3465;42.144;24.722;2023-05-19T00:33:30;146536.16;;;14.48;100.00
6853;BME280;3465;42.144;24.722;2023-05-19T00:35:57;146513.56;;;14.39;100.00
6853;BME280;3465;42.144;24.722;2023-05-19T00:38:23;146546.19;;;14.52;100.00
6853;BME280;3465;42.144;24.722;2023-05-19T00:40:48;146551.22;;;14.54;100.00
6853;BME280;3465;42.144;24.722;2023-05-19T00:43:14;146548.72;;;14.53;100.00
6853;BME280;3465;42.144;24.722;2023-05-19T00:45:40;146516.03;;;14.40;100.00
6853;BME280;3465;42.144;24.722;2023-05-19T00:48:05;146517.31;;;14.40;100.00
6853;BME280;3465;42.144;24.722;2023-05-19T00:50:31;146551.22;;;14.54;100.00
6853;BME280;3465;42.144;24.722;2023-05-19T00:52:56;146536.16;;;14.48;100.00
6853;BME280;3465;42.144;24.722;2023-05-19T00:55:26;146557.53;;;14.56;100.00
6853;BME280;3465;42.144;24.722;2023-05-19T00:57:53;146529.88;;;14.45;100.00
6853;BME280;3465;42.144;24.722;2023-05-19T01:00:20;146542.41;;;14.50;100.00
6853;BME280;3465;42.144;24.722;2023-05-19T01:02:45;146543.69;;;14.51;100.00
6853;BME280;3465;42.144;24.722;2023-05-19T01:05:11;146532.38;;;14.46;100.00
6853;BME280;3465;42.144;24.722;2023-05-19T01:07:38;146543.69;;;14.51;100.00
6853;BME280;3465;42.144;24.722;2023-05-19T01:10:03;146542.41;;;14.50;100.00
6853;BME280;3465;42.144;24.722;2023-05-19T01:12:29;146534.88;;;14.47;100.00
6853;BME280;3465;42.144;24.722;2023-05-19T01:14:56;146514.78;;;14.39;100.00
6853;BME280;3465;42.144;24.722;2023-05-19T01:18:04;146514.78;;;14.39;100.00
6853;BME280;3465;42.144;24.722;2023-05-19T01:20:38;146512.28;;;14.38;100.00
6853;BME280;3465;42.144;24.722;2023-05-19T01:23:32;146511.00;;;14.38;100.00
6853;BME280;3465;42.144;24.722;2023-05-19T01:26:34;146519.81;;;14.41;100.00
6853;BME280;3465;42.144;24.722;2023-05-19T01:31:51;146516.03;;;14.40;100.00
6853;BME280;3465;42.144;24.722;2023-05-19T01:34:19;146521.09;;;14.42;100.00
6853;BME280;3465;42.144;24.722;2023-05-19T01:36:47;146522.31;;;14.42;100.00
6853;BME280;3465;42.144;24.722;2023-05-19T01:39:15;146531.09;;;14.46;100.00
6853;BME280;3465;42.144;24.722;2023-05-19T01:41:41;146527.34;;;14.44;100.00
6853;BME280;3465;42.144;24.722;2023-05-19T01:44:08;146542.41;;;14.50;100.00
6853;BME280;3465;42.144;24.722;2023-05-19T01:46:34;146537.41;;;14.48;100.00
6853;BME280;3465;42.144;24.722;2023-05-19T01:49:00;146532.38;;;14.46;100.00
6853;BME280;3465;42.144;24.722;2023-05-19T01:51:26;146522.31;;;14.42;100.00
6853;BME280;3465;42.144;24.722;2023-05-19T01:53:51;146513.56;;;14.39;100.00
6853;BME280;3465;42.144;24.722;2023-05-19T01:56:37;146497.22;;;14.32;100.00
6853;BME280;3465;42.144;24.722;2023-05-19T01:59:15;146521.09;;;14.42;100.00
6853;BME280;3465;42.144;24.722;2023-05-19T02:01:53;146509.78;;;14.37;100.00
6853;BME280;3465;42.144;24.722;2023-05-19T02:04:34;146451.94;;;14.14;100.00
6853;BME280;3465;42.144;24.722;2023-05-19T02:09:58;146526.06;;;14.44;100.00
6853;BME280;3465;42.144;24.722;2023-05-19T02:12:35;146526.06;;;14.44;100.00
6853;BME280;3465;42.144;24.722;2023-05-19T02:17:35;146524.84;;;14.43;100.00
6853;BME280;3465;42.144;24.722;2023-05-19T02:20:03;146522.31;;;14.42;100.00
6853;BME280;3465;42.144;24.722;2023-05-19T02:22:29;146485.88;;;14.27;100.00
6853;BME280;3465;42.144;24.722;2023-05-19T02:24:55;146512.28;;;14.38;100.00
6853;BME280;3465;42.144;24.722;2023-05-19T02:27:21;146512.28;;;14.38;100.00
6853;BME280;3465;42.144;24.722;2023-05-19T02:29:47;146509.78;;;14.37;100.00
6853;BME280;3465;42.144;24.722;2023-05-19T02:32:13;146518.53;;;14.41;100.00
6853;BME280;3465;42.144;24.722;2023-05-19T02:34:38;146495.94;;;14.31;100.00
6853;BME280;3465;42.144;24.722;2023-05-19T02:37:06;146446.88;;;14.12;100.00
6853;BME280;3465;42.144;24.722;2023-05-19T02:39:31;146465.72;;;14.19;100.00
6853;BME280;3465;42.144;24.722;2023-05-19T02:41:59;146455.69;;;14.15;100.00
6853;BME280;3465;42.144;24.722;2023-05-19T02:44:25;146463.22;;;14.18;100.00
6853;BME280;3465;42.144;24.722;2023-05-19T02:46:50;146420.53;;;14.01;100.00
6853;BME280;3465;42.144;24.722;2023-05-19T02:49:15;146433.09;;;14.06;100.00
6853;BME280;3465;42.144;24.722;2023-05-19T02:51:41;146426.78;;;14.04;100.00
6853;BME280;3465;42.144;24.722;2023-05-19T02:54:06;146416.75;;;14.00;100.00
6853;BME280;3465;42.144;24.722;2023-05-19T02:56:31;146409.22;;;13.97;100.00
6853;BME280;3465;42.144;24.722;2023-05-19T02:58:57;146439.34;;;14.09;100.00
6853;BME280;3465;42.144;24.722;2023-05-19T03:01:22;146425.53;;;14.03;100.00
6853;BME280;3465;42.144;24.722;2023-05-19T03:03:48;146420.53;;;14.01;100.00
6853;BME280;3465;42.144;24.722;2023-05-19T03:06:13;146419.25;;;14.01;100.00
6853;BME280;3465;42.144;24.722;2023-05-19T03:08:39;146407.97;;;13.96;100.00
6853;BME280;3465;42.144;24.722;2023-05-19T03:11:05;146404.19;;;13.95;100.00
6853;BME280;3465;42.144;24.722;2023-05-19T03:13:30;146401.66;;;13.94;100.00
6853;BME280;3465;42.144;24.722;2023-05-19T03:15:56;146410.47;;;13.97;100.00
6853;BME280;3465;42.144;24.722;2023-05-19T03:18:23;146406.69;;;13.96;100.00
6853;BME280;3465;42.144;24.722;2023-05-19T03:20:49;146414.22;;;13.99;100.00
6853;BME280;3465;42.144;24.722;2023-05-19T03:23:14;146407.97;;;13.96;100.00
6853;BME280;3465;42.144;24.722;2023-05-19T03:25:40;146429.34;;;14.05;100.00
6853;BME280;3465;42.144;24.722;2023-05-19T03:28:05;146434.31;;;14.07;100.00
6853;BME280;3465;42.144;24.722;2023-05-19T03:30:31;146434.31;;;14.07;100.00
6853;BME280;3465;42.144;24.722;2023-05-19T03:32:56;146428.06;;;14.04;100.00
6853;BME280;3465;42.144;24.722;2023-05-19T03:35:22;146434.31;;;14.07;100.00
6853;BME280;3465;42.144;24.722;2023-05-19T03:37:47;146434.31;;;14.07;100.00
6853;BME280;3465;42.144;24.722;2023-05-19T03:40:12;146439.34;;;14.09;100.00
6853;BME280;3465;42.144;24.722;2023-05-19T03:42:38;146431.81;;;14.06;100.00
6853;BME280;3465;42.144;24.722;2023-05-19T03:45:03;146440.63;;;14.09;100.00
6853;BME280;3465;42.144;24.722;2023-05-19T03:47:29;146433.09;;;14.06;100.00
6853;BME280;3465;42.144;24.722;2023-05-19T03:49:55;146459.44;;;14.17;100.00
6853;BME280;3465;42.144;24.722;2023-05-19T03:52:21;146454.41;;;14.15;100.00
6853;BME280;3465;42.144;24.722;2023-05-19T03:54:46;146468.25;;;14.20;100.00
6853;BME280;3465;42.144;24.722;2023-05-19T03:57:13;146512.28;;;14.38;100.00
6853;BME280;3465;42.144;24.722;2023-05-19T03:59:38;146509.78;;;14.37;100.00
6853;BME280;3465;42.144;24.722;2023-05-19T04:02:05;146516.03;;;14.40;100.00
6853;BME280;3465;42.144;24.722;2023-05-19T04:04:31;146534.88;;;14.47;100.00
6853;BME280;3465;42.144;24.722;2023-05-19T04:06:56;146502.19;;;14.34;100.00
6853;BME280;3465;42.144;24.722;2023-05-19T04:09:22;146519.81;;;14.41;100.00
6853;BME280;3465;42.144;24.722;2023-05-19T04:11:48;146528.63;;;14.45;100.00
6853;BME280;3465;42.144;24.722;2023-05-19T04:14:14;146534.88;;;14.47;100.00
6853;BME280;3465;42.144;24.722;2023-05-19T04:16:40;146543.69;;;14.51;100.00
6853;BME280;3465;42.144;24.722;2023-05-19T04:19:06;146560.00;;;14.57;100.00
6853;BME280;3465;42.144;24.722;2023-05-19T04:21:31;146571.31;;;14.62;100.00
6853;BME280;3465;42.144;24.722;2023-05-19T04:23:56;146562.50;;;14.58;100.00
6853;BME280;3465;42.144;24.722;2023-05-19T04:26:24;146595.19;;;14.71;100.00
6853;BME280;3465;42.144;24.722;2023-05-19T04:28:50;146600.22;;;14.73;100.00
6853;BME280;3465;42.144;24.722;2023-05-19T04:31:16;146586.38;;;14.68;100.00
6853;BME280;3465;42.144;24.722;2023-05-19T04:33:41;146611.53;;;14.78;100.00
6853;BME280;3465;42.144;24.722;2023-05-19T04:36:07;146595.19;;;14.71;100.00
6853;BME280;3465;42.144;24.722;2023-05-19T04:38:38;146611.53;;;14.78;100.00
6853;BME280;3465;42.144;24.722;2023-05-19T04:41:06;146620.34;;;14.81;100.00
6853;BME280;3465;42.144;24.722;2023-05-19T04:43:35;146641.72;;;14.90;100.00
6853;BME280;3465;42.144;24.722;2023-05-19T04:46:02;146634.19;;;14.87;100.00
6853;BME280;3465;42.144;24.722;2023-05-19T04:48:30;146650.53;;;14.93;100.00
6853;BME280;3465;42.144;24.722;2023-05-19T04:50:56;146664.34;;;14.99;100.00
6853;BME280;3465;42.144;24.722;2023-05-19T04:53:21;146744.78;;;15.31;100.00
6853;BME280;3465;42.144;24.722;2023-05-19T04:55:50;146778.81;;;15.44;100.00
6853;BME280;3465;42.144;24.722;2023-05-19T04:58:15;146728.44;;;15.24;100.00
6853;BME280;3465;42.144;24.722;2023-05-19T05:00:41;146892.03;;;15.90;100.00
6853;BME280;3465;42.144;24.722;2023-05-19T05:03:06;146962.47;;;16.18;100.00
6853;BME280;3465;42.144;24.722;2023-05-19T05:05:33;147022.88;;;16.42;100.00
6853;BME280;3465;42.144;24.722;2023-05-19T05:07:59;147085.81;;;16.67;100.00
6853;BME280;3465;42.144;24.722;2023-05-19T05:10:24;147103.47;;;16.74;100.00
6853;BME280;3465;42.144;24.722;2023-05-19T05:12:50;147089.59;;;16.68;100.00
6853;BME280;3465;42.144;24.722;2023-05-19T05:15:16;147141.25;;;16.89;100.00
6853;BME280;3465;42.144;24.722;2023-05-19T05:17:42;147143.75;;;16.90;100.00
6853;BME280;3465;42.144;24.722;2023-05-19T05:20:08;147128.66;;;16.84;100.00
6853;BME280;3465;42.144;24.722;2023-05-19T05:22:34;147136.22;;;16.87;100.00
6853;BME280;3465;42.144;24.722;2023-05-19T05:25:00;147113.56;;;16.78;100.00
6853;BME280;3465;42.144;24.722;2023-05-19T05:27:26;147148.81;;;16.92;100.00
6853;BME280;3465;42.144;24.722;2023-05-19T05:29:52;147131.16;;;16.85;100.00
6853;BME280;3465;42.144;24.722;2023-05-19T05:32:17;147163.91;;;16.98;100.00
6853;BME280;3465;42.144;24.722;2023-05-19T05:34:43;147119.84;;;16.80;100.00
6853;BME280;3465;42.144;24.722;2023-05-19T05:37:08;147153.84;;;16.94;100.00
6853;BME280;3465;42.144;24.722;2023-05-19T05:39:34;147176.50;;;17.03;100.00
6853;BME280;3465;42.144;24.722;2023-05-19T05:41:59;147192.88;;;17.09;100.00
6853;BME280;3465;42.144;24.722;2023-05-19T05:44:25;147215.53;;;17.18;100.00
6853;BME280;3465;42.144;24.722;2023-05-19T05:46:50;147170.19;;;17.00;100.00
6853;BME280;3465;42.144;24.722;2023-05-19T05:49:16;147184.03;;;17.06;100.00
6853;BME280;3465;42.144;24.722;2023-05-19T05:51:42;147247.00;;;17.31;100.00
6853;BME280;3465;42.144;24.722;2023-05-19T05:54:10;147268.44;;;17.40;100.00
6853;BME280;3465;42.144;24.722;2023-05-19T05:56:36;147288.63;;;17.48;100.00
6853;BME280;3465;42.144;24.722;2023-05-19T05:59:02;147293.69;;;17.50;100.00
6853;BME280;3465;42.144;24.722;2023-05-19T06:01:27;147350.38;;;17.72;100.00
6853;BME280;3465;42.144;24.722;2023-05-19T06:03:55;147370.53;;;17.80;100.00
6853;BME280;3465;42.144;24.722;2023-05-19T06:06:20;147379.34;;;17.84;100.00
6853;BME280;3465;42.144;24.722;2023-05-19T06:08:46;147456.22;;;18.14;100.00
6853;BME280;3465;42.144;24.722;2023-05-19T06:11:11;147460.00;;;18.16;100.00
6853;BME280;3465;42.144;24.722;2023-05-19T06:13:37;147558.34;;;18.55;100.00
6853;BME280;3465;42.144;24.722;2023-05-19T06:16:03;147620.16;;;18.80;100.00
6853;BME280;3465;42.144;24.722;2023-05-19T06:18:29;147658.00;;;18.95;100.00
6853;BME280;3465;42.144;24.722;2023-05-19T06:20:54;147723.56;;;19.21;100.00
6853;BME280;3465;42.144;24.722;2023-05-19T06:23:20;147727.34;;;19.22;100.00
6853;BME280;3465;42.144;24.722;2023-05-19T06:25:46;147814.47;;;19.57;100.00
6853;BME280;3465;42.144;24.722;2023-05-19T06:28:11;147803.13;;;19.52;100.00
6853;BME280;3465;42.144;24.722;2023-05-19T06:30:37;147793.00;;;19.48;100.00
6853;BME280;3465;42.144;24.722;2023-05-19T06:33:02;147765.25;;;19.37;100.00
6853;BME280;3465;42.144;24.722;2023-05-19T06:35:28;147782.94;;;19.44;100.00
6853;BME280;3465;42.144;24.722;2023-05-19T06:37:54;147906.56;;;19.93;100.00
6853;BME280;3465;42.144;24.722;2023-05-19T06:40:20;147986.13;;;20.25;98.70
6853;BME280;3465;42.144;24.722;2023-05-19T06:42:46;148183.22;;;21.03;95.79
6853;BME280;3465;42.144;24.722;2023-05-19T06:45:11;148429.69;;;22.01;89.86
6853;BME280;3465;42.144;24.722;2023-05-19T06:47:37;148610.56;;;22.73;85.89
6853;BME280;3465;42.144;24.722;2023-05-19T06:50:05;148885.19;;;23.82;77.00
6853;BME280;3465;42.144;24.722;2023-05-19T06:52:30;148972.63;;;24.17;74.21
6853;BME280;3465;42.144;24.722;2023-05-19T06:54:56;149053.66;;;24.49;74.40
6853;BME280;3465;42.144;24.722;2023-05-19T06:57:21;149203.19;;;25.08;72.49
6853;BME280;3465;42.144;24.722;2023-05-19T06:59:46;149440.31;;;26.02;69.92
6853;BME280;3465;42.144;24.722;2023-05-19T07:02:12;149502.47;;;26.26;66.23
6853;BME280;3465;42.144;24.722;2023-05-19T07:04:37;149304.63;;;25.48;68.44
6853;BME280;3465;42.144;24.722;2023-05-19T07:07:04;148992.88;;;24.25;72.11
6853;BME280;3465;42.144;24.722;2023-05-19T07:09:29;148966.25;;;24.14;72.23
6853;BME280;3465;42.144;24.722;2023-05-19T07:11:54;148880.09;;;23.80;73.89
6853;BME280;3465;42.144;24.722;2023-05-19T07:14:21;148944.72;;;24.06;74.82
6853;BME280;3465;42.144;24.722;2023-05-19T07:16:46;149226.00;;;25.17;71.11
6853;BME280;3465;42.144;24.722;2023-05-19T07:19:11;149602.69;;;26.66;67.27
6853;BME280;3465;42.144;24.722;2023-05-19T07:21:37;149803.25;;;27.45;62.96
6853;BME280;3465;42.144;24.722;2023-05-19T07:24:03;149723.25;;;27.14;63.18
6853;BME280;3465;42.144;24.722;2023-05-19T07:26:28;149685.19;;;26.99;63.05
6853;BME280;3465;42.144;24.722;2023-05-19T07:28:54;149553.16;;;26.46;65.28
6853;BME280;3465;42.144;24.722;2023-05-19T07:31:19;149635.69;;;26.79;65.30
6853;BME280;3465;42.144;24.722;2023-05-19T07:33:44;149593.75;;;26.62;62.74
6853;BME280;3465;42.144;24.722;2023-05-19T07:36:10;149831.16;;;27.56;61.52
6853;BME280;3465;42.144;24.722;2023-05-19T07:38:35;149848.97;;;27.63;59.92
6853;BME280;3465;42.144;24.722;2023-05-19T07:41:01;149998.84;;;28.23;58.12
6853;BME280;3465;42.144;24.722;2023-05-19T07:43:27;150083.97;;;28.56;59.14
6853;BME280;3465;42.144;24.722;2023-05-19T07:45:52;150078.88;;;28.54;61.22
6853;BME280;3465;42.144;24.722;2023-05-19T07:48:20;150381.47;;;29.74;55.11
6853;BME280;3465;42.144;24.722;2023-05-19T07:50:47;150528.97;;;30.32;51.71
6853;BME280;3465;42.144;24.722;2023-05-19T07:53:13;150508.63;;;30.24;51.91
6853;BME280;3465;42.144;24.722;2023-05-19T07:55:38;150615.47;;;30.66;49.85
6853;BME280;3465;42.144;24.722;2023-05-19T07:58:04;150316.56;;;29.48;50.74
6853;BME280;3465;42.144;24.722;2023-05-19T08:00:30;150157.66;;;28.85;53.31
6853;BME280;3465;42.144;24.722;2023-05-19T08:02:55;150267.00;;;29.28;51.28
6853;BME280;3465;42.144;24.722;2023-05-19T08:05:21;150576.06;;;30.50;48.19
6853;BME280;3465;42.144;24.722;2023-05-19T08:07:47;150581.16;;;30.52;47.20
6853;BME280;3465;42.144;24.722;2023-05-19T08:10:13;150485.69;;;30.15;46.94
6853;BME280;3465;42.144;24.722;2023-05-19T08:12:39;150865.00;;;31.64;45.26
6853;BME280;3465;42.144;24.722;2023-05-19T08:15:05;151007.66;;;32.21;43.13
6853;BME280;3465;42.144;24.722;2023-05-19T08:17:31;151314.84;;;33.42;40.61
6853;BME280;3465;42.144;24.722;2023-05-19T08:19:57;151427.00;;;33.86;38.50
6853;BME280;3465;42.144;24.722;2023-05-19T08:22:22;151316.09;;;33.42;38.62
6853;BME280;3465;42.144;24.722;2023-05-19T08:24:47;151443.63;;;33.92;37.38
6853;BME280;3465;42.144;24.722;2023-05-19T08:27:15;151428.28;;;33.86;36.87
6853;BME280;3465;42.144;24.722;2023-05-19T08:29:41;151443.63;;;33.92;36.98
6853;BME280;3465;42.144;24.722;2023-05-19T08:32:07;151576.31;;;34.44;35.44
6853;BME280;3465;42.144;24.722;2023-05-19T08:34:32;151409.13;;;33.79;36.75
6853;BME280;3465;42.144;24.722;2023-05-19T08:36:58;151513.75;;;34.20;35.38
6853;BME280;3465;42.144;24.722;2023-05-19T08:39:24;151656.63;;;34.76;35.14
6853;BME280;3465;42.144;24.722;2023-05-19T08:41:54;151659.16;;;34.77;35.17
6853;BME280;3465;42.144;24.722;2023-05-19T08:44:20;151685.97;;;34.88;34.44
6853;BME280;3465;42.144;24.722;2023-05-19T08:46:48;151793.16;;;35.30;34.24
6853;BME280;3465;42.144;24.722;2023-05-19T08:49:16;151836.63;;;35.47;33.78
6853;BME280;3465;42.144;24.722;2023-05-19T08:54:36;151997.47;;;36.10;32.87
6853;BME280;3465;42.144;24.722;2023-05-19T08:57:06;152038.34;;;36.26;31.84
6853;BME280;3465;42.144;24.722;2023-05-19T08:59:32;152121.41;;;36.59;31.05
6853;BME280;3465;42.144;24.722;2023-05-19T09:01:58;152181.44;;;36.82;30.79
6853;BME280;3465;42.144;24.722;2023-05-19T09:04:24;152180.22;;;36.82;29.97
6853;BME280;3465;42.144;24.722;2023-05-19T09:06:52;152265.78;;;37.15;29.77
6853;BME280;3465;42.144;24.722;2023-05-19T09:09:17;152322.03;;;37.38;29.81
6853;BME280;3465;42.144;24.722;2023-05-19T09:11:45;152478.00;;;37.99;28.75
6853;BME280;3465;42.144;24.722;2023-05-19T09:14:11;152539.41;;;38.23;27.72
6853;BME280;3465;42.144;24.722;2023-05-19T09:16:36;152310.53;;;37.33;28.03
6853;BME280;3465;42.144;24.722;2023-05-19T09:19:02;152480.53;;;38.00;28.64
6853;BME280;3465;42.144;24.722;2023-05-19T09:21:30;152416.66;;;37.75;28.31
6853;BME280;3465;42.144;24.722;2023-05-19T09:23:57;152511.22;;;38.12;27.69
6853;BME280;3465;42.144;24.722;2023-05-19T09:26:23;152572.63;;;38.36;26.85
6853;BME280;3465;42.144;24.722;2023-05-19T09:28:49;152313.09;;;37.34;27.10
6853;BME280;3465;42.144;24.722;2023-05-19T09:31:14;152337.34;;;37.44;28.03
6853;BME280;3465;42.144;24.722;2023-05-19T09:33:41;152516.41;;;38.14;27.15
6853;BME280;3465;42.144;24.722;2023-05-19T09:36:07;152559.84;;;38.31;27.17
6853;BME280;3465;42.144;24.722;2023-05-19T09:38:35;152595.63;;;38.45;27.46
6853;BME280;3465;42.144;24.722;2023-05-19T09:41:01;152718.44;;;38.93;27.19
6853;BME280;3465;42.144;24.722;2023-05-19T09:43:30;152777.31;;;39.16;26.32
6853;BME280;3465;42.144;24.722;2023-05-19T09:46:06;152689.00;;;38.82;26.56
6853;BME280;3465;42.144;24.722;2023-05-19T09:48:33;152564.97;;;38.33;27.52
6853;BME280;3465;42.144;24.722;2023-05-19T09:51:00;152495.91;;;38.06;27.97
6853;BME280;3465;42.144;24.722;2023-05-19T09:53:28;152654.50;;;38.68;27.31
6853;BME280;3465;42.144;24.722;2023-05-19T09:55:55;152301.59;;;37.29;28.80
6853;BME280;3465;42.144;24.722;2023-05-19T09:58:24;151948.97;;;35.91;29.71
6853;BME280;3465;42.144;24.722;2023-05-19T10:00:50;151430.81;;;33.87;33.58
6853;BME280;3465;42.144;24.722;2023-05-19T10:03:19;151084.09;;;32.51;35.30
6853;BME280;3465;42.144;24.722;2023-05-19T10:05:47;150702.06;;;31.00;38.32
6853;BME280;3465;42.144;24.722;2023-05-19T10:08:13;150521.34;;;30.29;38.03
6853;BME280;3465;42.144;24.722;2023-05-19T10:10:43;150104.31;;;28.64;39.99
6853;BME280;3465;42.144;24.722;2023-05-19T10:13:10;149653.47;;;26.86;44.73
6853;BME280;3465;42.144;24.722;2023-05-19T10:15:36;149497.38;;;26.24;48.29
6853;BME280;3465;42.144;24.722;2023-05-19T10:18:02;149540.53;;;26.41;46.48
6853;BME280;3465;42.144;24.722;2023-05-19T10:20:28;149655.97;;;26.87;48.43
6853;BME280;3465;42.144;24.722;2023-05-19T10:22:53;149682.66;;;26.98;46.62
6853;BME280;3465;42.144;24.722;2023-05-19T10:25:19;149680.09;;;26.97;49.28
6853;BME280;3465;42.144;24.722;2023-05-19T10:28:12;149713.09;;;27.10;48.88
6853;BME280;3465;42.144;24.722;2023-05-19T10:30:41;149673.78;;;26.94;46.50
6853;BME280;3465;42.144;24.722;2023-05-19T10:33:11;149558.25;;;26.48;47.36
6853;BME280;3465;42.144;24.722;2023-05-19T10:38:47;149962.00;;;28.08;45.80
6853;BME280;3465;42.144;24.722;2023-05-19T10:41:40;150479.38;;;30.12;43.47
6853;BME280;3465;42.144;24.722;2023-05-19T10:44:34;150749.13;;;31.19;37.70
6853;BME280;3465;42.144;24.722;2023-05-19T10:47:05;151302.03;;;33.36;34.79
6853;BME280;3465;42.144;24.722;2023-05-19T10:49:34;151361.97;;;33.60;34.54
6853;BME280;3465;42.144;24.722;2023-05-19T10:52:00;150929.97;;;31.90;38.02
6853;BME280;3465;42.144;24.722;2023-05-19T10:54:39;150716.03;;;31.06;37.76
6853;BME280;3465;42.144;24.722;2023-05-19T10:57:05;150582.41;;;30.53;40.69
6853;BME280;3465;42.144;24.722;2023-05-19T10:59:35;150376.34;;;29.72;42.88
6853;BME280;3465;42.144;24.722;2023-05-19T11:02:07;150062.31;;;28.48;48.40
6853;BME280;3465;42.144;24.722;2023-05-19T11:04:44;150016.59;;;28.30;50.42
6853;BME280;3465;42.144;24.722;2023-05-19T11:07:16;149960.72;;;28.08;52.22
6853;BME280;3465;42.144;24.722;2023-05-19T11:09:42;149913.75;;;27.89;53.39
6853;BME280;3465;42.144;24.722;2023-05-19T11:12:08;149955.63;;;28.05;53.81
6853;BME280;3465;42.144;24.722;2023-05-19T11:14:35;150034.38;;;28.37;51.48
6853;BME280;3465;42.144;24.722;2023-05-19T11:17:00;150348.34;;;29.61;49.63
6853;BME280;3465;42.144;24.722;2023-05-19T11:19:27;150719.88;;;31.07;44.31
6853;BME280;3465;42.144;24.722;2023-05-19T11:21:53;150695.66;;;30.98;40.13
6853;BME280;3465;42.144;24.722;2023-05-19T11:24:46;150287.34;;;29.36;39.46
6853;BME280;3465;42.144;24.722;2023-05-19T11:27:28;149977.22;;;28.14;44.61
6853;BME280;3465;42.144;24.722;2023-05-19T11:30:00;149730.88;;;27.17;43.73
6853;BME280;3465;42.144;24.722;2023-05-19T11:32:30;149893.41;;;27.81;43.84
6853;BME280;3465;42.144;24.722;2023-05-19T11:34:58;149923.88;;;27.93;43.31
6853;BME280;3465;42.144;24.722;2023-05-19T11:37:23;149951.81;;;28.04;42.55
6853;BME280;3465;42.144;24.722;2023-05-19T11:39:50;149846.41;;;27.62;43.38
6853;BME280;3465;42.144;24.722;2023-05-19T11:42:16;149516.38;;;26.32;45.59
6853;BME280;3465;42.144;24.722;2023-05-19T11:44:43;149345.19;;;25.64;47.56
6853;BME280;3465;42.144;24.722;2023-05-19T11:47:14;149193.03;;;25.04;49.15
6853;BME280;3465;42.144;24.722;2023-05-19T11:49:46;149177.84;;;24.98;51.12
6853;BME280;3465;42.144;24.722;2023-05-19T11:52:12;149124.63;;;24.77;51.39
6853;BME280;3465;42.144;24.722;2023-05-19T11:54:38;149084.03;;;24.61;50.90
6853;BME280;3465;42.144;24.722;2023-05-19T11:57:07;149271.69;;;25.35;49.74
6853;BME280;3465;42.144;24.722;2023-05-19T11:59:35;149551.94;;;26.46;48.45
6853;BME280;3465;42.144;24.722;2023-05-19T12:02:25;149888.31;;;27.79;46.04
6853;BME280;3465;42.144;24.722;2023-05-19T12:04:52;150179.25;;;28.94;44.60
6853;BME280;3465;42.144;24.722;2023-05-19T12:07:19;150274.63;;;29.31;40.71
6853;BME280;3465;42.144;24.722;2023-05-19T12:09:45;150269.53;;;29.29;41.49
6853;BME280;3465;42.144;24.722;2023-05-19T12:12:21;150546.78;;;30.39;40.23
6853;BME280;3465;42.144;24.722;2023-05-19T12:14:49;150773.28;;;31.28;37.46
6853;BME280;3465;42.144;24.722;2023-05-19T12:17:16;150819.16;;;31.46;37.99
6853;BME280;3465;42.144;24.722;2023-05-19T12:19:45;150798.81;;;31.38;36.49
6853;BME280;3465;42.144;24.722;2023-05-19T12:22:11;150870.13;;;31.66;36.49
6853;BME280;3465;42.144;24.722;2023-05-19T12:24:37;150667.69;;;30.87;36.42
6853;BME280;3465;42.144;24.722;2023-05-19T12:27:18;150798.81;;;31.38;38.94
6853;BME280;3465;42.144;24.722;2023-05-19T12:29:51;150918.53;;;31.85;35.63
6853;BME280;3465;42.144;24.722;2023-05-19T12:32:16;150844.66;;;31.56;36.12
6853;BME280;3465;42.144;24.722;2023-05-19T12:34:42;150758.03;;;31.22;37.60
6853;BME280;3465;42.144;24.722;2023-05-19T12:37:09;150793.72;;;31.36;37.69
6853;BME280;3465;42.144;24.722;2023-05-19T12:39:35;150654.94;;;30.82;36.86
6853;BME280;3465;42.144;24.722;2023-05-19T12:42:06;150539.16;;;30.36;38.12
6853;BME280;3465;42.144;24.722;2023-05-19T12:44:36;150357.25;;;29.64;40.50
6853;BME280;3465;42.144;24.722;2023-05-19T12:47:04;150265.72;;;29.28;42.78
6853;BME280;3465;42.144;24.722;2023-05-19T12:49:30;150178.00;;;28.93;41.86
6853;BME280;3465;42.144;24.722;2023-05-19T12:51:55;150144.97;;;28.80;42.68
6853;BME280;3465;42.144;24.722;2023-05-19T12:54:21;150061.03;;;28.47;43.74
6853;BME280;3465;42.144;24.722;2023-05-19T12:56:50;149992.47;;;28.20;43.97
6853;BME280;3465;42.144;24.722;2023-05-19T12:59:22;149931.50;;;27.96;45.69
6853;BME280;3465;42.144;24.722;2023-05-19T13:01:56;149898.44;;;27.83;44.54
6853;BME280;3465;42.144;24.722;2023-05-19T13:04:23;149815.94;;;27.50;46.34
6853;BME280;3465;42.144;24.722;2023-05-19T13:06:48;149881.94;;;27.76;46.04
6853;BME280;3465;42.144;24.722;2023-05-19T13:09:14;149857.81;;;27.67;44.04
6853;BME280;3465;42.144;24.722;2023-05-19T13:11:42;149832.47;;;27.57;44.72